sensor_id;sensor_type;location;lat;lon;timestamp;temperature;humidity
76104;HTU21D;64831;44.870;37.336;2023-06-14T00:01:18;20.43;78.27
76104;HTU21D;64831;44.870;37.336;2023-06-14T00:03:45;20.43;78.42
76104;HTU21D;64831;44.870;37.336;2023-06-14T00:06:12;20.43;78.43
76104;HTU21D;64831;44.870;37.336;2023-06-14T00:08:38;20.45;78.63
76104;HTU21D;64831;44.870;37.336;2023-06-14T00:11:06;20.45;78.66
76104;HTU21D;64831;44.870;37.336;2023-06-14T00:13:31;20.48;78.18
76104;HTU21D;64831;44.870;37.336;2023-06-14T00:15:57;20.51;78.69
76104;HTU21D;64831;44.870;37.336;2023-06-14T00:18:23;20.51;78.25
76104;HTU21D;64831;44.870;37.336;2023-06-14T00:20:55;20.53;78.04
76104;HTU21D;64831;44.870;37.336;2023-06-14T00:23:20;20.56;78.45
76104;HTU21D;64831;44.870;37.336;2023-06-14T00:25:46;20.58;78.61
76104;HTU21D;64831;44.870;37.336;2023-06-14T00:28:12;20.59;78.47
76104;HTU21D;64831;44.870;37.336;2023-06-14T00:30:38;20.59;78.19
76104;HTU21D;64831;44.870;37.336;2023-06-14T00:33:04;20.60;78.47
76104;HTU21D;64831;44.870;37.336;2023-06-14T00:35:29;20.59;78.47
76104;HTU21D;64831;44.870;37.336;2023-06-14T00:37:56;20.58;78.09
76104;HTU21D;64831;44.870;37.336;2023-06-14T00:40:22;20.60;78.43
76104;HTU21D;64831;44.870;37.336;2023-06-14T00:42:48;20.61;78.30
76104;HTU21D;64831;44.870;37.336;2023-06-14T00:45:13;20.60;78.26
76104;HTU21D;64831;44.870;37.336;2023-06-14T00:47:40;20.62;78.05
76104;HTU21D;64831;44.870;37.336;2023-06-14T00:50:07;20.62;77.86
76104;HTU21D;64831;44.870;37.336;2023-06-14T00:52:33;20.63;77.66
76104;HTU21D;64831;44.870;37.336;2023-06-14T00:55:00;20.63;77.94
76104;HTU21D;64831;44.870;37.336;2023-06-14T00:57:26;20.65;77.55
76104;HTU21D;64831;44.870;37.336;2023-06-14T00:59:51;20.65;77.36
76104;HTU21D;64831;44.870;37.336;2023-06-14T01:02:17;20.63;77.27
76104;HTU21D;64831;44.870;37.336;2023-06-14T01:04:46;20.63;77.35
76104;HTU21D;64831;44.870;37.336;2023-06-14T01:12:33;20.58;77.50
76104;HTU21D;64831;44.870;37.336;2023-06-14T01:15:01;20.54;77.35
76104;HTU21D;64831;44.870;37.336;2023-06-14T01:17:28;20.53;77.82
76104;HTU21D;64831;44.870;37.336;2023-06-14T01:20:06;20.49;77.76
76104;HTU21D;64831;44.870;37.336;2023-06-14T01:22:35;20.43;77.47
76104;HTU21D;64831;44.870;37.336;2023-06-14T01:25:01;20.41;77.29
76104;HTU21D;64831;44.870;37.336;2023-06-14T01:27:27;20.40;77.76
76104;HTU21D;64831;44.870;37.336;2023-06-14T01:29:57;20.39;77.98
76104;HTU21D;64831;44.870;37.336;2023-06-14T01:32:25;20.39;78.98
76104;HTU21D;64831;44.870;37.336;2023-06-14T01:34:52;20.37;78.18
76104;HTU21D;64831;44.870;37.336;2023-06-14T01:37:18;20.39;78.21
76104;HTU21D;64831;44.870;37.336;2023-06-14T01:39:45;20.40;78.90
76104;HTU21D;64831;44.870;37.336;2023-06-14T01:42:11;20.44;79.12
76104;HTU21D;64831;44.870;37.336;2023-06-14T01:44:40;20.49;80.35
76104;HTU21D;64831;44.870;37.336;2023-06-14T01:47:07;20.50;79.69
76104;HTU21D;64831;44.870;37.336;2023-06-14T01:49:33;20.55;79.74
76104;HTU21D;64831;44.870;37.336;2023-06-14T01:52:00;20.56;79.33
76104;HTU21D;64831;44.870;37.336;2023-06-14T01:54:26;20.57;79.78
76104;HTU21D;64831;44.870;37.336;2023-06-14T01:56:52;20.55;80.59
76104;HTU21D;64831;44.870;37.336;2023-06-14T01:59:18;20.58;80.57
76104;HTU21D;64831;44.870;37.336;2023-06-14T02:01:44;20.58;79.68
76104;HTU21D;64831;44.870;37.336;2023-06-14T02:04:11;20.59;80.09
76104;HTU21D;64831;44.870;37.336;2023-06-14T02:06:37;20.63;80.35
76104;HTU21D;64831;44.870;37.336;2023-06-14T02:09:03;20.59;80.01
76104;HTU21D;64831;44.870;37.336;2023-06-14T02:11:29;20.59;79.85
76104;HTU21D;64831;44.870;37.336;2023-06-14T02:13:55;20.57;79.56
76104;HTU21D;64831;44.870;37.336;2023-06-14T02:16:21;20.56;80.04
76104;HTU21D;64831;44.870;37.336;2023-06-14T02:18:47;20.57;79.75
76104;HTU21D;64831;44.870;37.336;2023-06-14T02:21:14;20.56;79.48
76104;HTU21D;64831;44.870;37.336;2023-06-14T02:23:40;20.58;79.51
76104;HTU21D;64831;44.870;37.336;2023-06-14T02:26:06;20.58;79.65
76104;HTU21D;64831;44.870;37.336;2023-06-14T02:28:33;20.58;79.83
76104;HTU21D;64831;44.870;37.336;2023-06-14T02:31:01;20.63;80.72
76104;HTU21D;64831;44.870;37.336;2023-06-14T02:33:26;20.61;80.62
76104;HTU21D;64831;44.870;37.336;2023-06-14T02:35:52;20.66;80.73
76104;HTU21D;64831;44.870;37.336;2023-06-14T02:38:18;20.73;81.74
76104;HTU21D;64831;44.870;37.336;2023-06-14T02:40:44;20.76;81.65
76104;HTU21D;64831;44.870;37.336;2023-06-14T02:43:10;20.80;81.57
76104;HTU21D;64831;44.870;37.336;2023-06-14T02:45:35;20.81;81.74
76104;HTU21D;64831;44.870;37.336;2023-06-14T02:48:01;20.84;80.53
76104;HTU21D;64831;44.870;37.336;2023-06-14T02:50:27;20.88;80.64
76104;HTU21D;64831;44.870;37.336;2023-06-14T02:52:53;20.94;80.55
76104;HTU21D;64831;44.870;37.336;2023-06-14T02:55:22;20.94;80.72
76104;HTU21D;64831;44.870;37.336;2023-06-14T02:57:48;21.00;81.14
76104;HTU21D;64831;44.870;37.336;2023-06-14T03:00:16;21.04;81.13
76104;HTU21D;64831;44.870;37.336;2023-06-14T03:02:43;21.07;81.59
76104;HTU21D;64831;44.870;37.336;2023-06-14T03:05:11;21.10;81.78
76104;HTU21D;64831;44.870;37.336;2023-06-14T03:07:36;21.10;81.60
76104;HTU21D;64831;44.870;37.336;2023-06-14T03:10:09;21.16;81.33
76104;HTU21D;64831;44.870;37.336;2023-06-14T03:12:36;21.22;81.92
76104;HTU21D;64831;44.870;37.336;2023-06-14T03:15:02;21.24;82.20
76104;HTU21D;64831;44.870;37.336;2023-06-14T03:17:31;21.25;81.64
76104;HTU21D;64831;44.870;37.336;2023-06-14T03:20:00;21.29;82.26
76104;HTU21D;64831;44.870;37.336;2023-06-14T03:22:26;21.30;81.96
76104;HTU21D;64831;44.870;37.336;2023-06-14T03:24:52;21.34;82.21
76104;HTU21D;64831;44.870;37.336;2023-06-14T03:27:20;21.37;82.62
76104;HTU21D;64831;44.870;37.336;2023-06-14T03:29:46;21.37;82.68
76104;HTU21D;64831;44.870;37.336;2023-06-14T03:32:12;21.43;82.83
76104;HTU21D;64831;44.870;37.336;2023-06-14T03:34:41;21.48;82.56
76104;HTU21D;64831;44.870;37.336;2023-06-14T03:37:13;21.58;82.51
76104;HTU21D;64831;44.870;37.336;2023-06-14T03:39:38;21.63;82.17
76104;HTU21D;64831;44.870;37.336;2023-06-14T03:42:13;21.69;82.11
76104;HTU21D;64831;44.870;37.336;2023-06-14T03:44:39;21.69;82.01
76104;HTU21D;64831;44.870;37.336;2023-06-14T03:47:05;21.70;81.98
76104;HTU21D;64831;44.870;37.336;2023-06-14T03:49:32;21.70;82.43
76104;HTU21D;64831;44.870;37.336;2023-06-14T03:51:58;21.75;82.33
76104;HTU21D;64831;44.870;37.336;2023-06-14T03:54:26;21.81;82.01
76104;HTU21D;64831;44.870;37.336;2023-06-14T03:56:53;21.82;82.02
76104;HTU21D;64831;44.870;37.336;2023-06-14T03:59:19;21.82;81.95
76104;HTU21D;64831;44.870;37.336;2023-06-14T04:01:47;21.84;81.94
76104;HTU21D;64831;44.870;37.336;2023-06-14T04:04:15;21.78;82.13
76104;HTU21D;64831;44.870;37.336;2023-06-14T04:06:44;21.77;82.44
76104;HTU21D;64831;44.870;37.336;2023-06-14T04:09:10;21.75;82.80
76104;HTU21D;64831;44.870;37.336;2023-06-14T04:11:36;21.75;82.84
76104;HTU21D;64831;44.870;37.336;2023-06-14T04:14:02;21.79;82.94
76104;HTU21D;64831;44.870;37.336;2023-06-14T04:16:28;21.82;83.02
76104;HTU21D;64831;44.870;37.336;2023-06-14T04:18:55;21.90;83.13
76104;HTU21D;64831;44.870;37.336;2023-06-14T04:21:22;22.02;82.94
76104;HTU21D;64831;44.870;37.336;2023-06-14T04:23:52;22.12;82.49
76104;HTU21D;64831;44.870;37.336;2023-06-14T04:26:21;22.19;82.33
76104;HTU21D;64831;44.870;37.336;2023-06-14T04:28:49;22.23;82.07
76104;HTU21D;64831;44.870;37.336;2023-06-14T04:31:17;22.26;81.75
76104;HTU21D;64831;44.870;37.336;2023-06-14T04:33:44;22.27;81.36
76104;HTU21D;64831;44.870;37.336;2023-06-14T04:36:15;22.26;81.29
76104;HTU21D;64831;44.870;37.336;2023-06-14T04:38:44;22.26;81.30
76104;HTU21D;64831;44.870;37.336;2023-06-14T04:41:12;22.31;81.44
76104;HTU21D;64831;44.870;37.336;2023-06-14T04:43:39;22.41;81.48
76104;HTU21D;64831;44.870;37.336;2023-06-14T04:46:06;22.55;81.42
76104;HTU21D;64831;44.870;37.336;2023-06-14T04:48:37;22.69;80.28
76104;HTU21D;64831;44.870;37.336;2023-06-14T04:51:03;22.77;79.83
76104;HTU21D;64831;44.870;37.336;2023-06-14T04:53:29;22.83;79.64
76104;HTU21D;64831;44.870;37.336;2023-06-14T04:55:56;22.90;79.56
76104;HTU21D;64831;44.870;37.336;2023-06-14T04:58:23;23.03;79.75
76104;HTU21D;64831;44.870;37.336;2023-06-14T05:00:49;23.11;78.61
76104;HTU21D;64831;44.870;37.336;2023-06-14T05:03:15;23.03;78.40
76104;HTU21D;64831;44.870;37.336;2023-06-14T05:05:41;22.91;78.62
76104;HTU21D;64831;44.870;37.336;2023-06-14T05:08:07;22.77;79.12
76104;HTU21D;64831;44.870;37.336;2023-06-14T05:10:33;22.65;79.45
76104;HTU21D;64831;44.870;37.336;2023-06-14T05:13:01;22.56;79.88
76104;HTU21D;64831;44.870;37.336;2023-06-14T05:15:27;22.53;80.06
76104;HTU21D;64831;44.870;37.336;2023-06-14T05:17:54;22.55;80.32
76104;HTU21D;64831;44.870;37.336;2023-06-14T05:20:24;22.56;80.04
76104;HTU21D;64831;44.870;37.336;2023-06-14T05:22:51;22.61;80.01
76104;HTU21D;64831;44.870;37.336;2023-06-14T05:25:17;22.62;79.59
76104;HTU21D;64831;44.870;37.336;2023-06-14T05:27:43;22.56;79.53
76104;HTU21D;64831;44.870;37.336;2023-06-14T05:30:09;22.61;79.71
76104;HTU21D;64831;44.870;37.336;2023-06-14T05:32:35;22.65;79.37
76104;HTU21D;64831;44.870;37.336;2023-06-14T05:35:01;22.62;78.89
76104;HTU21D;64831;44.870;37.336;2023-06-14T05:37:26;22.55;78.79
76104;HTU21D;64831;44.870;37.336;2023-06-14T05:39:52;22.44;78.95
76104;HTU21D;64831;44.870;37.336;2023-06-14T05:42:18;22.46;78.93
76104;HTU21D;64831;44.870;37.336;2023-06-14T05:44:44;22.47;79.14
76104;HTU21D;64831;44.870;37.336;2023-06-14T05:47:09;22.47;79.09
76104;HTU21D;64831;44.870;37.336;2023-06-14T05:49:35;22.53;79.20
76104;HTU21D;64831;44.870;37.336;2023-06-14T05:52:01;22.63;79.08
76104;HTU21D;64831;44.870;37.336;2023-06-14T05:54:26;22.69;78.60
76104;HTU21D;64831;44.870;37.336;2023-06-14T05:56:52;22.77;78.21
76104;HTU21D;64831;44.870;37.336;2023-06-14T05:59:18;22.82;77.89
76104;HTU21D;64831;44.870;37.336;2023-06-14T06:01:44;22.90;77.84
76104;HTU21D;64831;44.870;37.336;2023-06-14T06:04:09;22.91;77.44
76104;HTU21D;64831;44.870;37.336;2023-06-14T06:06:35;22.88;77.13
76104;HTU21D;64831;44.870;37.336;2023-06-14T06:09:01;22.87;76.80
76104;HTU21D;64831;44.870;37.336;2023-06-14T06:11:26;22.77;76.78
76104;HTU21D;64831;44.870;37.336;2023-06-14T06:13:52;22.69;76.89
76104;HTU21D;64831;44.870;37.336;2023-06-14T06:16:18;22.63;76.95
76104;HTU21D;64831;44.870;37.336;2023-06-14T06:18:44;22.60;77.06
76104;HTU21D;64831;44.870;37.336;2023-06-14T06:21:09;22.54;77.18
76104;HTU21D;64831;44.870;37.336;2023-06-14T06:23:35;22.50;77.29
76104;HTU21D;64831;44.870;37.336;2023-06-14T06:26:02;22.46;77.22
76104;HTU21D;64831;44.870;37.336;2023-06-14T06:28:28;22.41;77.24
76104;HTU21D;64831;44.870;37.336;2023-06-14T06:30:54;22.32;77.42
76104;HTU21D;64831;44.870;37.336;2023-06-14T06:33:20;22.34;77.69
76104;HTU21D;64831;44.870;37.336;2023-06-14T06:35:45;22.38;77.60
76104;HTU21D;64831;44.870;37.336;2023-06-14T06:38:11;22.36;77.27
76104;HTU21D;64831;44.870;37.336;2023-06-14T06:40:37;22.39;77.53
76104;HTU21D;64831;44.870;37.336;2023-06-14T06:43:03;22.47;77.34
76104;HTU21D;64831;44.870;37.336;2023-06-14T06:45:28;22.52;76.78
76104;HTU21D;64831;44.870;37.336;2023-06-14T06:47:54;22.62;76.79
76104;HTU21D;64831;44.870;37.336;2023-06-14T06:50:21;22.72;76.61
76104;HTU21D;64831;44.870;37.336;2023-06-14T06:52:48;22.83;75.92
76104;HTU21D;64831;44.870;37.336;2023-06-14T06:55:14;22.94;75.65
76104;HTU21D;64831;44.870;37.336;2023-06-14T06:57:40;23.03;75.24
76104;HTU21D;64831;44.870;37.336;2023-06-14T07:00:06;23.08;74.76
76104;HTU21D;64831;44.870;37.336;2023-06-14T07:02:35;23.12;74.75
76104;HTU21D;64831;44.870;37.336;2023-06-14T07:05:01;23.20;74.76
76104;HTU21D;64831;44.870;37.336;2023-06-14T07:07:27;23.29;74.16
76104;HTU21D;64831;44.870;37.336;2023-06-14T07:09:53;23.37;74.30
76104;HTU21D;64831;44.870;37.336;2023-06-14T07:12:19;23.58;74.09
76104;HTU21D;64831;44.870;37.336;2023-06-14T07:14:45;23.84;73.15
76104;HTU21D;64831;44.870;37.336;2023-06-14T07:17:11;24.01;72.61
76104;HTU21D;64831;44.870;37.336;2023-06-14T07:19:37;24.03;71.45
76104;HTU21D;64831;44.870;37.336;2023-06-14T07:22:06;24.06;71.26
76104;HTU21D;64831;44.870;37.336;2023-06-14T07:24:32;24.10;71.00
76104;HTU21D;64831;44.870;37.336;2023-06-14T07:26:57;24.08;70.58
76104;HTU21D;64831;44.870;37.336;2023-06-14T07:29:23;24.13;70.06
76104;HTU21D;64831;44.870;37.336;2023-06-14T07:31:49;24.14;70.07
76104;HTU21D;64831;44.870;37.336;2023-06-14T07:34:14;24.13;69.84
76104;HTU21D;64831;44.870;37.336;2023-06-14T07:36:40;24.06;69.67
76104;HTU21D;64831;44.870;37.336;2023-06-14T07:39:06;23.98;69.90
76104;HTU21D;64831;44.870;37.336;2023-06-14T07:41:32;23.74;70.26
76104;HTU21D;64831;44.870;37.336;2023-06-14T07:43:58;23.56;71.15
76104;HTU21D;64831;44.870;37.336;2023-06-14T07:46:23;23.54;71.88
76104;HTU21D;64831;44.870;37.336;2023-06-14T07:48:49;23.59;71.80
76104;HTU21D;64831;44.870;37.336;2023-06-14T07:51:15;23.51;71.95
76104;HTU21D;64831;44.870;37.336;2023-06-14T07:53:41;23.45;72.29
76104;HTU21D;64831;44.870;37.336;2023-06-14T07:56:07;23.51;72.38
76104;HTU21D;64831;44.870;37.336;2023-06-14T07:58:33;23.54;72.50
76104;HTU21D;64831;44.870;37.336;2023-06-14T08:00:59;23.51;72.29
76104;HTU21D;64831;44.870;37.336;2023-06-14T08:03:26;23.45;72.37
76104;HTU21D;64831;44.870;37.336;2023-06-14T08:05:52;23.40;72.26
76104;HTU21D;64831;44.870;37.336;2023-06-14T08:08:18;23.39;72.35
76104;HTU21D;64831;44.870;37.336;2023-06-14T08:10:44;23.37;72.44
76104;HTU21D;64831;44.870;37.336;2023-06-14T08:13:09;23.26;72.24
76104;HTU21D;64831;44.870;37.336;2023-06-14T08:15:35;23.18;72.40
76104;HTU21D;64831;44.870;37.336;2023-06-14T08:18:01;23.12;72.54
76104;HTU21D;64831;44.870;37.336;2023-06-14T08:20:27;23.10;72.85
76104;HTU21D;64831;44.870;37.336;2023-06-14T08:22:53;23.03;72.89
76104;HTU21D;64831;44.870;37.336;2023-06-14T08:25:22;22.96;73.02
76104;HTU21D;64831;44.870;37.336;2023-06-14T08:27:48;22.93;73.22
76104;HTU21D;64831;44.870;37.336;2023-06-14T08:30:14;22.94;73.22
76104;HTU21D;64831;44.870;37.336;2023-06-14T08:32:40;22.94;72.96
76104;HTU21D;64831;44.870;37.336;2023-06-14T08:35:06;22.95;72.92
76104;HTU21D;64831;44.870;37.336;2023-06-14T08:37:32;22.94;72.83
76104;HTU21D;64831;44.870;37.336;2023-06-14T08:40:01;23.03;72.96
76104;HTU21D;64831;44.870;37.336;2023-06-14T08:42:29;23.18;73.07
76104;HTU21D;64831;44.870;37.336;2023-06-14T08:44:55;23.41;72.44
76104;HTU21D;64831;44.870;37.336;2023-06-14T08:47:21;23.60;71.86
76104;HTU21D;64831;44.870;37.336;2023-06-14T08:49:47;23.82;71.39
76104;HTU21D;64831;44.870;37.336;2023-06-14T08:52:13;24.19;71.26
76104;HTU21D;64831;44.870;37.336;2023-06-14T08:54:44;24.74;69.70
76104;HTU21D;64831;44.870;37.336;2023-06-14T08:57:13;25.25;68.29
76104;HTU21D;64831;44.870;37.336;2023-06-14T08:59:44;25.81;67.34
76104;HTU21D;64831;44.870;37.336;2023-06-14T09:02:11;26.47;64.70
76104;HTU21D;64831;44.870;37.336;2023-06-14T09:04:38;26.89;62.79
76104;HTU21D;64831;44.870;37.336;2023-06-14T09:07:05;27.05;61.21
76104;HTU21D;64831;44.870;37.336;2023-06-14T09:09:31;27.32;61.12
76104;HTU21D;64831;44.870;37.336;2023-06-14T09:11:57;27.76;60.14
76104;HTU21D;64831;44.870;37.336;2023-06-14T09:14:23;28.13;58.47
76104;HTU21D;64831;44.870;37.336;2023-06-14T09:16:53;28.27;57.48
76104;HTU21D;64831;44.870;37.336;2023-06-14T09:19:25;28.41;57.48
76104;HTU21D;64831;44.870;37.336;2023-06-14T09:21:52;28.65;58.28
76104;HTU21D;64831;44.870;37.336;2023-06-14T09:24:18;28.77;55.26
76104;HTU21D;64831;44.870;37.336;2023-06-14T09:26:47;28.95;57.13
76104;HTU21D;64831;44.870;37.336;2023-06-14T09:29:12;28.72;53.36
76104;HTU21D;64831;44.870;37.336;2023-06-14T09:31:38;28.46;54.21
76104;HTU21D;64831;44.870;37.336;2023-06-14T09:34:04;28.05;55.18
76104;HTU21D;64831;44.870;37.336;2023-06-14T09:36:31;27.69;55.84
76104;HTU21D;64831;44.870;37.336;2023-06-14T09:39:03;27.14;56.92
76104;HTU21D;64831;44.870;37.336;2023-06-14T09:41:37;26.86;58.29
76104;HTU21D;64831;44.870;37.336;2023-06-14T09:44:04;26.87;59.22
76104;HTU21D;64831;44.870;37.336;2023-06-14T09:46:31;27.00;58.99
76104;HTU21D;64831;44.870;37.336;2023-06-14T09:48:57;27.11;58.88
76104;HTU21D;64831;44.870;37.336;2023-06-14T09:51:23;27.01;58.47
76104;HTU21D;64831;44.870;37.336;2023-06-14T09:53:50;27.00;58.70
76104;HTU21D;64831;44.870;37.336;2023-06-14T09:56:22;27.00;58.35
76104;HTU21D;64831;44.870;37.336;2023-06-14T09:58:49;27.02;58.26
76104;HTU21D;64831;44.870;37.336;2023-06-14T10:01:17;26.61;58.96
76104;HTU21D;64831;44.870;37.336;2023-06-14T10:03:44;26.42;59.51
76104;HTU21D;64831;44.870;37.336;2023-06-14T10:06:10;26.19;59.96
76104;HTU21D;64831;44.870;37.336;2023-06-14T10:08:36;26.26;59.92
76104;HTU21D;64831;44.870;37.336;2023-06-14T10:11:03;26.34;59.56
76104;HTU21D;64831;44.870;37.336;2023-06-14T10:13:31;26.41;59.54
76104;HTU21D;64831;44.870;37.336;2023-06-14T10:16:00;26.46;59.27
76104;HTU21D;64831;44.870;37.336;2023-06-14T10:21:20;26.63;59.19
76104;HTU21D;64831;44.870;37.336;2023-06-14T10:23:47;26.76;59.06
76104;HTU21D;64831;44.870;37.336;2023-06-14T10:26:23;26.75;58.43
76104;HTU21D;64831;44.870;37.336;2023-06-14T10:29:01;26.70;58.09
76104;HTU21D;64831;44.870;37.336;2023-06-14T10:31:42;26.46;58.53
76104;HTU21D;64831;44.870;37.336;2023-06-14T10:34:08;26.50;58.99
76104;HTU21D;64831;44.870;37.336;2023-06-14T10:36:34;26.63;59.35
76104;HTU21D;64831;44.870;37.336;2023-06-14T10:41:26;27.06;58.33
76104;HTU21D;64831;44.870;37.336;2023-06-14T10:44:10;27.19;58.29
76104;HTU21D;64831;44.870;37.336;2023-06-14T10:46:36;27.41;56.87
76104;HTU21D;64831;44.870;37.336;2023-06-14T10:49:01;27.09;56.42
76104;HTU21D;64831;44.870;37.336;2023-06-14T10:51:29;27.12;57.51
76104;HTU21D;64831;44.870;37.336;2023-06-14T10:53:56;26.92;57.33
76104;HTU21D;64831;44.870;37.336;2023-06-14T10:56:28;26.80;57.71
76104;HTU21D;64831;44.870;37.336;2023-06-14T10:58:54;26.79;57.91
76104;HTU21D;64831;44.870;37.336;2023-06-14T11:01:32;26.47;58.33
76104;HTU21D;64831;44.870;37.336;2023-06-14T11:04:05;26.45;58.45
76104;HTU21D;64831;44.870;37.336;2023-06-14T11:06:34;26.27;58.73
76104;HTU21D;64831;44.870;37.336;2023-06-14T11:11:35;26.15;59.38
76104;HTU21D;64831;44.870;37.336;2023-06-14T11:14:02;26.16;59.62
76104;HTU21D;64831;44.870;37.336;2023-06-14T11:16:28;26.12;59.69
76104;HTU21D;64831;44.870;37.336;2023-06-14T11:18:54;26.11;59.77
76104;HTU21D;64831;44.870;37.336;2023-06-14T11:21:20;26.02;59.96
76104;HTU21D;64831;44.870;37.336;2023-06-14T11:23:52;25.91;60.40
76104;HTU21D;64831;44.870;37.336;2023-06-14T11:26:29;25.74;60.90
76104;HTU21D;64831;44.870;37.336;2023-06-14T11:28:59;25.74;61.10
76104;HTU21D;64831;44.870;37.336;2023-06-14T11:31:25;25.63;61.37
76104;HTU21D;64831;44.870;37.336;2023-06-14T11:33:55;25.52;61.31
76104;HTU21D;64831;44.870;37.336;2023-06-14T11:36:22;25.61;61.50
76104;HTU21D;64831;44.870;37.336;2023-06-14T11:38:48;25.59;61.59
76104;HTU21D;64831;44.870;37.336;2023-06-14T11:41:14;25.65;61.60
76104;HTU21D;64831;44.870;37.336;2023-06-14T11:43:40;25.50;61.84
76104;HTU21D;64831;44.870;37.336;2023-06-14T11:46:11;25.56;61.62
76104;HTU21D;64831;44.870;37.336;2023-06-14T11:48:38;25.53;61.79
76104;HTU21D;64831;44.870;37.336;2023-06-14T11:51:05;25.54;61.99
76104;HTU21D;64831;44.870;37.336;2023-06-14T11:53:30;25.61;61.99
76104;HTU21D;64831;44.870;37.336;2023-06-14T11:55:57;25.62;62.12
76104;HTU21D;64831;44.870;37.336;2023-06-14T11:58:22;25.62;62.02
76104;HTU21D;64831;44.870;37.336;2023-06-14T12:00:49;25.50;62.05
76104;HTU21D;64831;44.870;37.336;2023-06-14T12:03:15;25.40;62.64
76104;HTU21D;64831;44.870;37.336;2023-06-14T12:05:40;25.47;62.76
76104;HTU21D;64831;44.870;37.336;2023-06-14T12:08:06;25.48;62.41
76104;HTU21D;64831;44.870;37.336;2023-06-14T12:10:39;25.44;62.51
76104;HTU21D;64831;44.870;37.336;2023-06-14T12:13:06;25.43;62.84
76104;HTU21D;64831;44.870;37.336;2023-06-14T12:15:32;25.33;63.07
76104;HTU21D;64831;44.870;37.336;2023-06-14T12:17:58;25.27;63.24
76104;HTU21D;64831;44.870;37.336;2023-06-14T12:20:28;25.20;63.69
76104;HTU21D;64831;44.870;37.336;2023-06-14T12:22:55;25.28;63.81
76104;HTU21D;64831;44.870;37.336;2023-06-14T12:28:03;25.40;63.25
76104;HTU21D;64831;44.870;37.336;2023-06-14T12:30:29;25.24;63.50
76104;HTU21D;64831;44.870;37.336;2023-06-14T12:32:55;25.15;63.70
76104;HTU21D;64831;44.870;37.336;2023-06-14T12:35:20;24.93;63.80
76104;HTU21D;64831;44.870;37.336;2023-06-14T12:37:46;24.85;64.08
76104;HTU21D;64831;44.870;37.336;2023-06-14T12:40:12;24.69;64.55
76104;HTU21D;64831;44.870;37.336;2023-06-14T12:42:39;24.65;64.76
76104;HTU21D;64831;44.870;37.336;2023-06-14T12:45:05;24.69;64.92
76104;HTU21D;64831;44.870;37.336;2023-06-14T12:47:31;24.75;64.87
76104;HTU21D;64831;44.870;37.336;2023-06-14T12:49:56;24.73;64.61
76104;HTU21D;64831;44.870;37.336;2023-06-14T12:52:22;24.59;64.87
76104;HTU21D;64831;44.870;37.336;2023-06-14T12:54:49;24.50;65.02
76104;HTU21D;64831;44.870;37.336;2023-06-14T12:57:14;24.38;65.27
76104;HTU21D;64831;44.870;37.336;2023-06-14T12:59:40;24.30;65.53
76104;HTU21D;64831;44.870;37.336;2023-06-14T13:02:12;24.27;65.82
76104;HTU21D;64831;44.870;37.336;2023-06-14T13:04:38;24.16;65.78
76104;HTU21D;64831;44.870;37.336;2023-06-14T13:07:04;24.00;66.27
76104;HTU21D;64831;44.870;37.336;2023-06-14T13:09:30;23.96;66.65
76104;HTU21D;64831;44.870;37.336;2023-06-14T13:11:56;23.96;66.57
76104;HTU21D;64831;44.870;37.336;2023-06-14T13:14:22;23.92;66.59
76104;HTU21D;64831;44.870;37.336;2023-06-14T13:16:48;23.98;66.75
76104;HTU21D;64831;44.870;37.336;2023-06-14T13:19:13;24.10;66.46
76104;HTU21D;64831;44.870;37.336;2023-06-14T13:21:39;24.13;65.97
76104;HTU21D;64831;44.870;37.336;2023-06-14T13:24:05;24.15;65.83
76104;HTU21D;64831;44.870;37.336;2023-06-14T13:26:32;24.12;65.37
76104;HTU21D;64831;44.870;37.336;2023-06-14T13:28:58;23.94;65.65
76104;HTU21D;64831;44.870;37.336;2023-06-14T13:31:23;23.88;65.82
76104;HTU21D;64831;44.870;37.336;2023-06-14T13:33:49;23.81;66.00
76104;HTU21D;64831;44.870;37.336;2023-06-14T13:36:15;23.82;66.24
76104;HTU21D;64831;44.870;37.336;2023-06-14T13:38:41;23.85;66.37
76104;HTU21D;64831;44.870;37.336;2023-06-14T13:41:07;23.90;66.46
76104;HTU21D;64831;44.870;37.336;2023-06-14T13:43:32;23.91;66.41
76104;HTU21D;64831;44.870;37.336;2023-06-14T13:45:58;23.90;66.53
76104;HTU21D;64831;44.870;37.336;2023-06-14T13:48:24;23.94;66.65
76104;HTU21D;64831;44.870;37.336;2023-06-14T13:50:50;23.80;66.94
76104;HTU21D;64831;44.870;37.336;2023-06-14T13:53:15;23.71;67.36
76104;HTU21D;64831;44.870;37.336;2023-06-14T13:55:41;23.70;67.35
76104;HTU21D;64831;44.870;37.336;2023-06-14T13:58:07;23.66;67.91
76104;HTU21D;64831;44.870;37.336;2023-06-14T14:00:32;23.65;67.94
76104;HTU21D;64831;44.870;37.336;2023-06-14T14:02:59;23.68;68.04
76104;HTU21D;64831;44.870;37.336;2023-06-14T14:05:25;23.65;68.32
76104;HTU21D;64831;44.870;37.336;2023-06-14T14:07:55;23.59;68.73
76104;HTU21D;64831;44.870;37.336;2023-06-14T14:10:22;23.60;68.63
76104;HTU21D;64831;44.870;37.336;2023-06-14T14:12:48;23.49;68.74
76104;HTU21D;64831;44.870;37.336;2023-06-14T14:15:14;23.44;68.71
76104;HTU21D;64831;44.870;37.336;2023-06-14T14:17:41;23.43;68.91
76104;HTU21D;64831;44.870;37.336;2023-06-14T14:20:06;23.46;68.97
76104;HTU21D;64831;44.870;37.336;2023-06-14T14:22:32;23.45;68.85
76104;HTU21D;64831;44.870;37.336;2023-06-14T14:24:58;23.35;69.40
76104;HTU21D;64831;44.870;37.336;2023-06-14T14:27:24;23.28;69.71
76104;HTU21D;64831;44.870;37.336;2023-06-14T14:29:49;23.25;70.16
76104;HTU21D;64831;44.870;37.336;2023-06-14T14:32:15;23.20;70.68
76104;HTU21D;64831;44.870;37.336;2023-06-14T14:34:41;23.14;70.87
76104;HTU21D;64831;44.870;37.336;2023-06-14T14:37:06;23.15;71.00
76104;HTU21D;64831;44.870;37.336;2023-06-14T14:39:32;23.18;70.98
76104;HTU21D;64831;44.870;37.336;2023-06-14T14:41:58;23.25;70.97
76104;HTU21D;64831;44.870;37.336;2023-06-14T14:44:24;23.25;70.96
76104;HTU21D;64831;44.870;37.336;2023-06-14T14:46:50;23.22;71.26
76104;HTU21D;64831;44.870;37.336;2023-06-14T14:49:15;23.20;71.42
76104;HTU21D;64831;44.870;37.336;2023-06-14T14:51:41;23.16;71.74
76104;HTU21D;64831;44.870;37.336;2023-06-14T14:54:07;23.16;71.88
76104;HTU21D;64831;44.870;37.336;2023-06-14T14:56:32;23.21;71.84
76104;HTU21D;64831;44.870;37.336;2023-06-14T14:59:00;23.22;71.90
76104;HTU21D;64831;44.870;37.336;2023-06-14T15:01:26;23.25;71.86
76104;HTU21D;64831;44.870;37.336;2023-06-14T15:03:52;23.26;71.71
76104;HTU21D;64831;44.870;37.336;2023-06-14T15:06:17;23.22;71.80
76104;HTU21D;64831;44.870;37.336;2023-06-14T15:08:43;23.15;71.97
76104;HTU21D;64831;44.870;37.336;2023-06-14T15:11:09;23.11;72.08
76104;HTU21D;64831;44.870;37.336;2023-06-14T15:13:35;23.07;72.24
76104;HTU21D;64831;44.870;37.336;2023-06-14T15:16:01;23.11;72.06